sensor_id;sensor_type;location;lat;lon;timestamp;P1;durP1;ratioP1;P2;durP2;ratioP2
26588;SDS011;14235;48.532;8.722;2023-01-08T00:01:02;6.73;;;5.97;;
26588;SDS011;14235;48.532;8.722;2023-01-08T00:03:28;7.03;;;5.70;;
26588;SDS011;14235;48.532;8.722;2023-01-08T00:05:54;6.43;;;5.70;;
26588;SDS011;14235;48.532;8.722;2023-01-08T00:08:20;5.70;;;5.20;;
26588;SDS011;14235;48.532;8.722;2023-01-08T00:10:52;8.03;;;5.63;;
26588;SDS011;14235;48.532;8.722;2023-01-08T00:13:18;9.90;;;7.37;;
26588;SDS011;14235;48.532;8.722;2023-01-08T00:15:44;6.50;;;5.80;;
26588;SDS011;14235;48.532;8.722;2023-01-08T00:18:10;6.87;;;6.17;;
26588;SDS011;14235;48.532;8.722;2023-01-08T00:20:39;8.03;;;5.90;;
26588;SDS011;14235;48.532;8.722;2023-01-08T00:23:05;6.67;;;5.70;;
26588;SDS011;14235;48.532;8.722;2023-01-08T00:25:33;7.80;;;5.43;;
26588;SDS011;14235;48.532;8.722;2023-01-08T00:27:59;6.97;;;5.50;;
26588;SDS011;14235;48.532;8.722;2023-01-08T00:30:25;6.77;;;5.57;;
26588;SDS011;14235;48.532;8.722;2023-01-08T00:32:51;6.53;;;5.63;;
26588;SDS011;14235;48.532;8.722;2023-01-08T00:35:17;6.13;;;5.43;;
26588;SDS011;14235;48.532;8.722;2023-01-08T00:37:43;7.27;;;5.50;;
26588;SDS011;14235;48.532;8.722;2023-01-08T00:40:09;7.17;;;5.57;;
26588;SDS011;14235;48.532;8.722;2023-01-08T00:42:35;6.03;;;5.43;;
26588;SDS011;14235;48.532;8.722;2023-01-08T00:45:01;6.37;;;5.40;;
26588;SDS011;14235;48.532;8.722;2023-01-08T00:47:27;7.17;;;5.70;;
26588;SDS011;14235;48.532;8.722;2023-01-08T00:49:53;6.67;;;5.90;;
26588;SDS011;14235;48.532;8.722;2023-01-08T00:52:19;7.57;;;5.63;;
26588;SDS011;14235;48.532;8.722;2023-01-08T00:54:45;6.00;;;5.40;;
26588;SDS011;14235;48.532;8.722;2023-01-08T00:57:11;6.87;;;5.57;;
26588;SDS011;14235;48.532;8.722;2023-01-08T00:59:37;7.73;;;5.87;;
26588;SDS011;14235;48.532;8.722;2023-01-08T01:02:03;6.63;;;5.53;;
26588;SDS011;14235;48.532;8.722;2023-01-08T01:04:29;6.50;;;5.47;;
26588;SDS011;14235;48.532;8.722;2023-01-08T01:06:55;8.03;;;6.07;;
26588;SDS011;14235;48.532;8.722;2023-01-08T01:09:21;10.40;;;7.27;;
26588;SDS011;14235;48.532;8.722;2023-01-08T01:11:47;6.82;;;6.07;;
26588;SDS011;14235;48.532;8.722;2023-01-08T01:14:13;6.13;;;5.47;;
26588;SDS011;14235;48.532;8.722;2023-01-08T01:16:39;7.97;;;5.87;;
26588;SDS011;14235;48.532;8.722;2023-01-08T01:19:06;6.37;;;5.73;;
26588;SDS011;14235;48.532;8.722;2023-01-08T01:21:32;8.03;;;5.87;;
26588;SDS011;14235;48.532;8.722;2023-01-08T01:23:59;7.00;;;5.73;;
26588;SDS011;14235;48.532;8.722;2023-01-08T01:26:26;7.50;;;5.67;;
26588;SDS011;14235;48.532;8.722;2023-01-08T01:28:52;7.20;;;5.67;;
26588;SDS011;14235;48.532;8.722;2023-01-08T01:31:19;8.20;;;6.20;;
26588;SDS011;14235;48.532;8.722;2023-01-08T01:33:45;6.00;;;5.40;;
26588;SDS011;14235;48.532;8.722;2023-01-08T01:36:11;6.30;;;5.23;;
26588;SDS011;14235;48.532;8.722;2023-01-08T01:38:41;6.07;;;5.30;;
26588;SDS011;14235;48.532;8.722;2023-01-08T01:41:08;7.10;;;6.40;;
26588;SDS011;14235;48.532;8.722;2023-01-08T01:43:39;7.80;;;5.73;;
26588;SDS011;14235;48.532;8.722;2023-01-08T01:46:17;6.07;;;5.07;;
26588;SDS011;14235;48.532;8.722;2023-01-08T01:48:48;7.27;;;5.70;;
26588;SDS011;14235;48.532;8.722;2023-01-08T01:51:16;6.53;;;5.80;;
26588;SDS011;14235;48.532;8.722;2023-01-08T01:53:42;7.17;;;5.93;;
26588;SDS011;14235;48.532;8.722;2023-01-08T01:56:08;8.23;;;6.50;;
26588;SDS011;14235;48.532;8.722;2023-01-08T01:58:34;7.00;;;5.87;;
26588;SDS011;14235;48.532;8.722;2023-01-08T02:01:02;8.60;;;5.77;;
26588;SDS011;14235;48.532;8.722;2023-01-08T02:03:32;7.37;;;5.97;;
26588;SDS011;14235;48.532;8.722;2023-01-08T02:06:07;6.73;;;5.70;;
26588;SDS011;14235;48.532;8.722;2023-01-08T02:08:45;6.13;;;5.50;;
26588;SDS011;14235;48.532;8.722;2023-01-08T02:11:34;7.30;;;5.90;;
26588;SDS011;14235;48.532;8.722;2023-01-08T02:16:42;7.83;;;5.33;;
26588;SDS011;14235;48.532;8.722;2023-01-08T02:27:20;7.30;;;5.80;;
26588;SDS011;14235;48.532;8.722;2023-01-08T02:29:49;7.13;;;5.60;;
26588;SDS011;14235;48.532;8.722;2023-01-08T02:32:17;6.57;;;5.30;;
26588;SDS011;14235;48.532;8.722;2023-01-08T02:34:42;6.00;;;5.20;;
26588;SDS011;14235;48.532;8.722;2023-01-08T02:37:08;6.10;;;5.17;;
26588;SDS011;14235;48.532;8.722;2023-01-08T02:42:39;6.83;;;4.93;;
26588;SDS011;14235;48.532;8.722;2023-01-08T02:45:18;5.60;;;5.03;;
26588;SDS011;14235;48.532;8.722;2023-01-08T02:47:49;6.00;;;5.40;;
26588;SDS011;14235;48.532;8.722;2023-01-08T02:53:08;6.07;;;5.03;;
26588;SDS011;14235;48.532;8.722;2023-01-08T02:55:42;6.33;;;5.30;;
26588;SDS011;14235;48.532;8.722;2023-01-08T02:58:12;5.67;;;5.00;;
26588;SDS011;14235;48.532;8.722;2023-01-08T03:00:39;5.40;;;4.90;;
26588;SDS011;14235;48.532;8.722;2023-01-08T03:03:08;6.40;;;5.03;;
26588;SDS011;14235;48.532;8.722;2023-01-08T03:05:49;5.57;;;5.07;;
26588;SDS011;14235;48.532;8.722;2023-01-08T03:08:16;5.95;;;5.38;;
26588;SDS011;14235;48.532;8.722;2023-01-08T03:10:44;7.00;;;5.20;;
26588;SDS011;14235;48.532;8.722;2023-01-08T03:13:24;7.63;;;5.97;;
26588;SDS011;14235;48.532;8.722;2023-01-08T03:15:57;6.73;;;4.83;;
26588;SDS011;14235;48.532;8.722;2023-01-08T03:18:30;6.60;;;5.33;;
26588;SDS011;14235;48.532;8.722;2023-01-08T03:21:00;6.33;;;5.30;;
26588;SDS011;14235;48.532;8.722;2023-01-08T03:23:27;6.10;;;5.43;;
26588;SDS011;14235;48.532;8.722;2023-01-08T03:25:56;9.17;;;5.33;;
26588;SDS011;14235;48.532;8.722;2023-01-08T03:28:25;6.00;;;5.37;;
26588;SDS011;14235;48.532;8.722;2023-01-08T03:30:55;6.73;;;5.43;;
26588;SDS011;14235;48.532;8.722;2023-01-08T03:33:23;6.37;;;5.07;;
26588;SDS011;14235;48.532;8.722;2023-01-08T03:35:50;5.63;;;5.10;;
26588;SDS011;14235;48.532;8.722;2023-01-08T03:38:29;6.37;;;4.93;;
26588;SDS011;14235;48.532;8.722;2023-01-08T03:40:59;5.70;;;5.17;;
26588;SDS011;14235;48.532;8.722;2023-01-08T03:43:31;5.97;;;4.90;;
26588;SDS011;14235;48.532;8.722;2023-01-08T03:45:57;6.07;;;4.90;;
26588;SDS011;14235;48.532;8.722;2023-01-08T03:48:26;6.97;;;5.10;;
26588;SDS011;14235;48.532;8.722;2023-01-08T03:50:54;6.63;;;5.40;;
26588;SDS011;14235;48.532;8.722;2023-01-08T03:53:20;6.13;;;4.77;;
26588;SDS011;14235;48.532;8.722;2023-01-08T03:55:46;5.67;;;4.63;;
26588;SDS011;14235;48.532;8.722;2023-01-08T03:58:11;6.17;;;5.00;;
26588;SDS011;14235;48.532;8.722;2023-01-08T04:00:37;5.83;;;5.23;;
26588;SDS011;14235;48.532;8.722;2023-01-08T04:03:03;6.43;;;5.10;;
26588;SDS011;14235;48.532;8.722;2023-01-08T04:05:29;7.20;;;5.70;;
26588;SDS011;14235;48.532;8.722;2023-01-08T04:07:55;5.93;;;5.33;;
26588;SDS011;14235;48.532;8.722;2023-01-08T04:10:22;5.87;;;5.27;;
26588;SDS011;14235;48.532;8.722;2023-01-08T04:13:28;5.83;;;5.20;;
26588;SDS011;14235;48.532;8.722;2023-01-08T04:16:11;6.53;;;5.33;;
26588;SDS011;14235;48.532;8.722;2023-01-08T04:18:36;5.50;;;5.00;;
26588;SDS011;14235;48.532;8.722;2023-01-08T04:21:02;7.43;;;5.57;;
26588;SDS011;14235;48.532;8.722;2023-01-08T04:23:28;5.47;;;4.97;;
26588;SDS011;14235;48.532;8.722;2023-01-08T04:25:53;5.80;;;5.10;;
26588;SDS011;14235;48.532;8.722;2023-01-08T04:28:19;6.67;;;5.50;;
26588;SDS011;14235;48.532;8.722;2023-01-08T04:30:45;7.80;;;5.23;;
26588;SDS011;14235;48.532;8.722;2023-01-08T04:33:11;7.30;;;5.50;;
26588;SDS011;14235;48.532;8.722;2023-01-08T04:35:36;6.40;;;5.57;;
26588;SDS011;14235;48.532;8.722;2023-01-08T04:38:02;5.60;;;4.93;;
26588;SDS011;14235;48.532;8.722;2023-01-08T04:40:28;6.30;;;5.20;;
26588;SDS011;14235;48.532;8.722;2023-01-08T04:42:53;5.57;;;4.97;;
26588;SDS011;14235;48.532;8.722;2023-01-08T04:45:20;5.53;;;5.03;;
26588;SDS011;14235;48.532;8.722;2023-01-08T04:47:46;6.70;;;4.70;;
26588;SDS011;14235;48.532;8.722;2023-01-08T04:50:12;6.23;;;5.10;;
26588;SDS011;14235;48.532;8.722;2023-01-08T04:52:38;6.30;;;4.47;;
26588;SDS011;14235;48.532;8.722;2023-01-08T04:55:04;7.20;;;5.00;;
26588;SDS011;14235;48.532;8.722;2023-01-08T04:57:30;5.73;;;4.97;;
26588;SDS011;14235;48.532;8.722;2023-01-08T04:59:56;5.53;;;4.70;;
26588;SDS011;14235;48.532;8.722;2023-01-08T05:02:22;5.93;;;5.23;;
26588;SDS011;14235;48.532;8.722;2023-01-08T05:04:48;5.70;;;5.17;;
26588;SDS011;14235;48.532;8.722;2023-01-08T05:07:14;5.40;;;4.80;;
26588;SDS011;14235;48.532;8.722;2023-01-08T05:09:40;5.63;;;4.50;;
26588;SDS011;14235;48.532;8.722;2023-01-08T05:12:06;5.53;;;4.87;;
26588;SDS011;14235;48.532;8.722;2023-01-08T05:14:32;6.13;;;4.93;;
26588;SDS011;14235;48.532;8.722;2023-01-08T05:16:58;5.23;;;4.73;;
26588;SDS011;14235;48.532;8.722;2023-01-08T05:19:24;5.53;;;5.03;;
26588;SDS011;14235;48.532;8.722;2023-01-08T05:21:50;5.73;;;5.20;;
26588;SDS011;14235;48.532;8.722;2023-01-08T05:24:15;6.43;;;5.23;;
26588;SDS011;14235;48.532;8.722;2023-01-08T05:26:41;6.20;;;5.10;;
26588;SDS011;14235;48.532;8.722;2023-01-08T05:29:08;5.10;;;4.60;;
26588;SDS011;14235;48.532;8.722;2023-01-08T05:31:34;5.10;;;4.70;;
26588;SDS011;14235;48.532;8.722;2023-01-08T05:33:59;6.20;;;4.73;;
26588;SDS011;14235;48.532;8.722;2023-01-08T05:36:25;5.03;;;4.50;;
26588;SDS011;14235;48.532;8.722;2023-01-08T05:38:51;6.93;;;4.67;;
26588;SDS011;14235;48.532;8.722;2023-01-08T05:41:16;4.90;;;4.40;;
26588;SDS011;14235;48.532;8.722;2023-01-08T05:43:42;7.07;;;4.77;;
26588;SDS011;14235;48.532;8.722;2023-01-08T05:46:07;4.72;;;3.95;;
26588;SDS011;14235;48.532;8.722;2023-01-08T05:48:34;4.40;;;4.00;;
26588;SDS011;14235;48.532;8.722;2023-01-08T05:51:00;4.67;;;4.23;;
26588;SDS011;14235;48.532;8.722;2023-01-08T05:53:26;4.33;;;3.93;;
26588;SDS011;14235;48.532;8.722;2023-01-08T05:55:56;4.10;;;3.80;;
26588;SDS011;14235;48.532;8.722;2023-01-08T05:58:26;4.13;;;3.83;;
26588;SDS011;14235;48.532;8.722;2023-01-08T06:00:52;4.30;;;3.90;;
26588;SDS011;14235;48.532;8.722;2023-01-08T06:03:21;4.20;;;3.80;;
26588;SDS011;14235;48.532;8.722;2023-01-08T06:05:47;4.17;;;3.60;;
26588;SDS011;14235;48.532;8.722;2023-01-08T06:08:12;3.53;;;3.15;;
26588;SDS011;14235;48.532;8.722;2023-01-08T06:10:39;3.95;;;3.65;;
26588;SDS011;14235;48.532;8.722;2023-01-08T06:13:08;4.43;;;4.00;;
26588;SDS011;14235;48.532;8.722;2023-01-08T06:15:34;3.37;;;3.07;;
26588;SDS011;14235;48.532;8.722;2023-01-08T06:18:01;3.63;;;3.22;;
26588;SDS011;14235;48.532;8.722;2023-01-08T06:20:27;3.88;;;3.55;;
26588;SDS011;14235;48.532;8.722;2023-01-08T06:22:53;4.70;;;4.30;;
26588;SDS011;14235;48.532;8.722;2023-01-08T06:25:18;3.95;;;3.55;;
26588;SDS011;14235;48.532;8.722;2023-01-08T06:27:49;3.65;;;3.35;;
26588;SDS011;14235;48.532;8.722;2023-01-08T06:30:15;4.97;;;4.50;;
26588;SDS011;14235;48.532;8.722;2023-01-08T06:32:41;6.65;;;4.82;;
26588;SDS011;14235;48.532;8.722;2023-01-08T06:35:06;5.80;;;5.20;;
26588;SDS011;14235;48.532;8.722;2023-01-08T06:37:32;6.55;;;5.38;;
26588;SDS011;14235;48.532;8.722;2023-01-08T06:39:58;7.13;;;4.95;;
26588;SDS011;14235;48.532;8.722;2023-01-08T06:42:23;4.68;;;4.15;;
26588;SDS011;14235;48.532;8.722;2023-01-08T06:44:49;4.70;;;3.85;;
26588;SDS011;14235;48.532;8.722;2023-01-08T06:47:14;5.05;;;3.92;;
26588;SDS011;14235;48.532;8.722;2023-01-08T06:49:40;5.13;;;4.63;;
26588;SDS011;14235;48.532;8.722;2023-01-08T06:52:05;4.78;;;4.00;;
26588;SDS011;14235;48.532;8.722;2023-01-08T06:54:31;3.20;;;2.88;;
26588;SDS011;14235;48.532;8.722;2023-01-08T06:56:56;5.63;;;4.28;;
26588;SDS011;14235;48.532;8.722;2023-01-08T06:59:22;3.40;;;3.17;;
26588;SDS011;14235;48.532;8.722;2023-01-08T07:01:48;3.28;;;2.97;;
26588;SDS011;14235;48.532;8.722;2023-01-08T07:04:13;3.30;;;2.92;;
26588;SDS011;14235;48.532;8.722;2023-01-08T07:06:39;4.70;;;3.30;;
26588;SDS011;14235;48.532;8.722;2023-01-08T07:09:04;4.80;;;3.80;;
26588;SDS011;14235;48.532;8.722;2023-01-08T07:11:30;5.78;;;4.65;;
26588;SDS011;14235;48.532;8.722;2023-01-08T07:13:56;6.07;;;4.45;;
26588;SDS011;14235;48.532;8.722;2023-01-08T07:16:21;8.75;;;6.10;;
26588;SDS011;14235;48.532;8.722;2023-01-08T07:18:47;4.57;;;3.70;;
26588;SDS011;14235;48.532;8.722;2023-01-08T07:21:12;3.67;;;3.40;;
26588;SDS011;14235;48.532;8.722;2023-01-08T07:23:38;3.58;;;3.17;;
26588;SDS011;14235;48.532;8.722;2023-01-08T07:26:05;2.92;;;2.72;;
26588;SDS011;14235;48.532;8.722;2023-01-08T07:28:32;2.50;;;2.30;;
26588;SDS011;14235;48.532;8.722;2023-01-08T07:31:01;1.90;;;1.80;;
26588;SDS011;14235;48.532;8.722;2023-01-08T07:33:27;2.42;;;1.95;;
26588;SDS011;14235;48.532;8.722;2023-01-08T07:35:53;2.58;;;2.00;;
26588;SDS011;14235;48.532;8.722;2023-01-08T07:38:20;2.50;;;2.30;;
26588;SDS011;14235;48.532;8.722;2023-01-08T07:40:46;2.75;;;2.30;;
26588;SDS011;14235;48.532;8.722;2023-01-08T07:43:12;2.55;;;2.10;;
26588;SDS011;14235;48.532;8.722;2023-01-08T07:45:38;1.67;;;1.58;;
26588;SDS011;14235;48.532;8.722;2023-01-08T07:48:04;4.20;;;2.70;;
26588;SDS011;14235;48.532;8.722;2023-01-08T07:50:30;2.10;;;2.00;;
26588;SDS011;14235;48.532;8.722;2023-01-08T07:52:57;2.33;;;2.15;;
26588;SDS011;14235;48.532;8.722;2023-01-08T07:55:24;2.20;;;2.10;;
26588;SDS011;14235;48.532;8.722;2023-01-08T07:57:50;2.28;;;2.10;;
26588;SDS011;14235;48.532;8.722;2023-01-08T08:00:16;1.63;;;1.50;;
26588;SDS011;14235;48.532;8.722;2023-01-08T08:02:42;2.13;;;1.92;;
26588;SDS011;14235;48.532;8.722;2023-01-08T08:05:08;2.30;;;2.08;;
26588;SDS011;14235;48.532;8.722;2023-01-08T08:07:35;1.70;;;1.60;;
26588;SDS011;14235;48.532;8.722;2023-01-08T08:10:01;2.08;;;1.80;;
26588;SDS011;14235;48.532;8.722;2023-01-08T08:12:28;1.65;;;1.33;;
26588;SDS011;14235;48.532;8.722;2023-01-08T08:14:55;2.88;;;2.20;;
26588;SDS011;14235;48.532;8.722;2023-01-08T08:17:22;1.98;;;1.88;;
26588;SDS011;14235;48.532;8.722;2023-01-08T08:19:50;3.10;;;2.20;;
26588;SDS011;14235;48.532;8.722;2023-01-08T08:22:16;4.03;;;2.38;;
26588;SDS011;14235;48.532;8.722;2023-01-08T08:24:42;4.15;;;2.55;;
26588;SDS011;14235;48.532;8.722;2023-01-08T08:27:08;2.65;;;1.50;;
26588;SDS011;14235;48.532;8.722;2023-01-08T08:29:36;1.05;;;1.05;;
26588;SDS011;14235;48.532;8.722;2023-01-08T08:32:02;1.58;;;1.48;;
26588;SDS011;14235;48.532;8.722;2023-01-08T08:34:28;1.55;;;1.50;;
26588;SDS011;14235;48.532;8.722;2023-01-08T08:36:54;1.50;;;1.40;;
26588;SDS011;14235;48.532;8.722;2023-01-08T08:39:20;1.75;;;1.23;;
26588;SDS011;14235;48.532;8.722;2023-01-08T08:41:46;1.85;;;1.75;;
26588;SDS011;14235;48.532;8.722;2023-01-08T08:44:12;1.67;;;1.58;;
26588;SDS011;14235;48.532;8.722;2023-01-08T08:46:38;1.63;;;1.52;;
26588;SDS011;14235;48.532;8.722;2023-01-08T08:49:04;1.95;;;1.80;;
26588;SDS011;14235;48.532;8.722;2023-01-08T08:51:30;2.55;;;2.22;;
26588;SDS011;14235;48.532;8.722;2023-01-08T08:53:56;1.90;;;1.80;;
26588;SDS011;14235;48.532;8.722;2023-01-08T08:56:22;1.80;;;1.70;;
26588;SDS011;14235;48.532;8.722;2023-01-08T08:58:48;2.13;;;2.03;;
26588;SDS011;14235;48.532;8.722;2023-01-08T09:01:15;2.00;;;1.80;;
26588;SDS011;14235;48.532;8.722;2023-01-08T09:03:41;2.53;;;2.05;;
26588;SDS011;14235;48.532;8.722;2023-01-08T09:06:14;2.58;;;2.03;;
26588;SDS011;14235;48.532;8.722;2023-01-08T09:08:40;2.25;;;1.70;;
26588;SDS011;14235;48.532;8.722;2023-01-08T09:11:06;3.40;;;2.35;;
26588;SDS011;14235;48.532;8.722;2023-01-08T09:13:32;2.17;;;1.98;;
26588;SDS011;14235;48.532;8.722;2023-01-08T09:15:58;2.08;;;1.60;;
26588;SDS011;14235;48.532;8.722;2023-01-08T09:18:24;2.50;;;2.30;;
26588;SDS011;14235;48.532;8.722;2023-01-08T09:20:50;2.10;;;1.90;;
26588;SDS011;14235;48.532;8.722;2023-01-08T09:23:16;2.63;;;2.20;;
26588;SDS011;14235;48.532;8.722;2023-01-08T09:25:42;2.20;;;2.00;;
26588;SDS011;14235;48.532;8.722;2023-01-08T09:28:09;2.70;;;2.50;;
26588;SDS011;14235;48.532;8.722;2023-01-08T09:30:36;3.83;;;2.17;;
26588;SDS011;14235;48.532;8.722;2023-01-08T09:33:03;2.70;;;2.50;;
26588;SDS011;14235;48.532;8.722;2023-01-08T09:35:29;2.30;;;1.90;;
26588;SDS011;14235;48.532;8.722;2023-01-08T09:37:56;2.40;;;2.20;;
26588;SDS011;14235;48.532;8.722;2023-01-08T09:40:25;2.10;;;1.90;;
26588;SDS011;14235;48.532;8.722;2023-01-08T09:42:55;2.42;;;1.80;;
26588;SDS011;14235;48.532;8.722;2023-01-08T09:45:27;2.35;;;2.20;;
26588;SDS011;14235;48.532;8.722;2023-01-08T09:47:54;1.92;;;1.83;;
26588;SDS011;14235;48.532;8.722;2023-01-08T09:50:22;2.17;;;2.00;;
26588;SDS011;14235;48.532;8.722;2023-01-08T09:52:49;2.10;;;2.00;;
26588;SDS011;14235;48.532;8.722;2023-01-08T09:55:15;2.70;;;2.50;;
26588;SDS011;14235;48.532;8.722;2023-01-08T09:57:42;3.08;;;2.85;;
26588;SDS011;14235;48.532;8.722;2023-01-08T10:00:15;3.33;;;2.85;;
26588;SDS011;14235;48.532;8.722;2023-01-08T10:02:45;3.00;;;2.80;;
26588;SDS011;14235;48.532;8.722;2023-01-08T10:05:14;4.50;;;4.10;;
26588;SDS011;14235;48.532;8.722;2023-01-08T10:07:41;3.38;;;3.10;;
26588;SDS011;14235;48.532;8.722;2023-01-08T10:10:14;2.65;;;2.45;;
26588;SDS011;14235;48.532;8.722;2023-01-08T10:12:43;2.95;;;2.63;;
26588;SDS011;14235;48.532;8.722;2023-01-08T10:15:10;2.22;;;2.03;;
26588;SDS011;14235;48.532;8.722;2023-01-08T10:20:24;2.10;;;2.00;;
26588;SDS011;14235;48.532;8.722;2023-01-08T10:22:52;1.70;;;1.60;;
26588;SDS011;14235;48.532;8.722;2023-01-08T10:25:23;1.63;;;1.52;;
26588;SDS011;14235;48.532;8.722;2023-01-08T10:28:00;1.67;;;1.58;;
26588;SDS011;14235;48.532;8.722;2023-01-08T10:33:04;1.42;;;1.33;;
26588;SDS011;14235;48.532;8.722;2023-01-08T10:35:36;1.80;;;1.70;;
26588;SDS011;14235;48.532;8.722;2023-01-08T10:38:03;1.70;;;1.30;;
26588;SDS011;14235;48.532;8.722;2023-01-08T10:40:36;1.15;;;1.15;;
26588;SDS011;14235;48.532;8.722;2023-01-08T10:45:38;1.42;;;1.42;;
26588;SDS011;14235;48.532;8.722;2023-01-08T10:48:06;1.60;;;1.50;;
26588;SDS011;14235;48.532;8.722;2023-01-08T10:50:33;1.30;;;1.30;;
26588;SDS011;14235;48.532;8.722;2023-01-08T10:53:20;1.58;;;1.48;;
26588;SDS011;14235;48.532;8.722;2023-01-08T10:55:55;2.03;;;1.50;;
26588;SDS011;14235;48.532;8.722;2023-01-08T10:58:25;1.40;;;1.30;;
26588;SDS011;14235;48.532;8.722;2023-01-08T11:00:52;1.75;;;1.65;;
26588;SDS011;14235;48.532;8.722;2023-01-08T11:03:28;1.40;;;1.40;;
26588;SDS011;14235;48.532;8.722;2023-01-08T11:05:59;2.38;;;1.33;;
26588;SDS011;14235;48.532;8.722;2023-01-08T11:08:35;1.92;;;1.73;;
26588;SDS011;14235;48.532;8.722;2023-01-08T11:11:01;1.85;;;1.75;;
26588;SDS011;14235;48.532;8.722;2023-01-08T11:13:27;1.85;;;1.70;;
26588;SDS011;14235;48.532;8.722;2023-01-08T11:16:01;2.00;;;1.90;;
26588;SDS011;14235;48.532;8.722;2023-01-08T11:18:29;1.60;;;1.50;;
26588;SDS011;14235;48.532;8.722;2023-01-08T11:21:15;1.50;;;1.40;;
26588;SDS011;14235;48.532;8.722;2023-01-08T11:24:02;1.75;;;1.65;;
26588;SDS011;14235;48.532;8.722;2023-01-08T11:26:49;1.73;;;1.63;;
26588;SDS011;14235;48.532;8.722;2023-01-08T11:29:32;1.75;;;1.65;;
26588;SDS011;14235;48.532;8.722;2023-01-08T11:35:16;1.65;;;1.55;;
26588;SDS011;14235;48.532;8.722;2023-01-08T11:37:54;4.32;;;2.90;;
26588;SDS011;14235;48.532;8.722;2023-01-08T11:48:29;2.22;;;2.13;;
26588;SDS011;14235;48.532;8.722;2023-01-08T12:09:40;1.80;;;1.70;;
26588;SDS011;14235;48.532;8.722;2023-01-08T12:17:37;2.13;;;2.03;;
26588;SDS011;14235;48.532;8.722;2023-01-08T12:20:53;1.92;;;1.83;;
26588;SDS011;14235;48.532;8.722;2023-01-08T12:23:36;1.70;;;1.60;;
26588;SDS011;14235;48.532;8.722;2023-01-08T12:26:19;1.88;;;1.77;;
26588;SDS011;14235;48.532;8.722;2023-01-08T12:29:12;2.22;;;2.03;;
26588;SDS011;14235;48.532;8.722;2023-01-08T12:31:58;3.75;;;2.40;;
26588;SDS011;14235;48.532;8.722;2023-01-08T12:34:46;2.03;;;1.88;;
26588;SDS011;14235;48.532;8.722;2023-01-08T12:37:20;3.38;;;3.08;;
26588;SDS011;14235;48.532;8.722;2023-01-08T12:42:40;2.33;;;2.13;;
26588;SDS011;14235;48.532;8.722;2023-01-08T12:45:13;2.78;;;2.55;;
26588;SDS011;14235;48.532;8.722;2023-01-08T12:48:01;2.60;;;2.40;;
26588;SDS011;14235;48.532;8.722;2023-01-08T12:50:33;1.92;;;1.83;;
26588;SDS011;14235;48.532;8.722;2023-01-08T12:53:15;2.60;;;2.40;;
26588;SDS011;14235;48.532;8.722;2023-01-08T12:56:07;2.00;;;1.90;;
26588;SDS011;14235;48.532;8.722;2023-01-08T12:58:49;2.10;;;1.98;;
26588;SDS011;14235;48.532;8.722;2023-01-08T13:01:46;1.88;;;1.77;;
26588;SDS011;14235;48.532;8.722;2023-01-08T13:04:16;2.30;;;2.00;;
26588;SDS011;14235;48.532;8.722;2023-01-08T13:06:50;2.40;;;2.20;;
26588;SDS011;14235;48.532;8.722;2023-01-08T13:09:23;2.15;;;1.88;;
26588;SDS011;14235;48.532;8.722;2023-01-08T13:11:50;2.10;;;1.98;;
26588;SDS011;14235;48.532;8.722;2023-01-08T13:14:17;2.70;;;2.50;;
26588;SDS011;14235;48.532;8.722;2023-01-08T13:16:45;2.22;;;2.13;;
26588;SDS011;14235;48.532;8.722;2023-01-08T13:19:24;2.00;;;1.90;;
26588;SDS011;14235;48.532;8.722;2023-01-08T13:22:03;2.55;;;2.35;;
26588;SDS011;14235;48.532;8.722;2023-01-08T13:24:34;3.05;;;2.20;;
26588;SDS011;14235;48.532;8.722;2023-01-08T13:29:45;2.10;;;1.98;;
26588;SDS011;14235;48.532;8.722;2023-01-08T13:37:45;1.80;;;1.70;;
26588;SDS011;14235;48.532;8.722;2023-01-08T13:43:00;1.20;;;1.20;;
26588;SDS011;14235;48.532;8.722;2023-01-08T13:45:29;1.70;;;1.60;;
26588;SDS011;14235;48.532;8.722;2023-01-08T13:47:55;1.65;;;1.55;;
26588;SDS011;14235;48.532;8.722;2023-01-08T13:50:22;2.25;;;1.77;;
26588;SDS011;14235;48.532;8.722;2023-01-08T13:52:58;2.33;;;1.75;;
26588;SDS011;14235;48.532;8.722;2023-01-08T13:55:33;1.92;;;1.83;;
26588;SDS011;14235;48.532;8.722;2023-01-08T13:58:06;2.08;;;1.90;;
26588;SDS011;14235;48.532;8.722;2023-01-08T14:03:20;1.80;;;1.70;;
26588;SDS011;14235;48.532;8.722;2023-01-08T14:05:46;2.05;;;1.95;;
26588;SDS011;14235;48.532;8.722;2023-01-08T14:08:22;1.70;;;1.60;;
26588;SDS011;14235;48.532;8.722;2023-01-08T14:10:51;3.00;;;2.20;;
26588;SDS011;14235;48.532;8.722;2023-01-08T14:13:20;2.08;;;1.98;;
26588;SDS011;14235;48.532;8.722;2023-01-08T14:15:51;2.53;;;2.33;;
26588;SDS011;14235;48.532;8.722;2023-01-08T14:18:17;2.58;;;2.38;;
26588;SDS011;14235;48.532;8.722;2023-01-08T14:20:46;2.10;;;2.00;;
26588;SDS011;14235;48.532;8.722;2023-01-08T14:23:33;1.70;;;1.60;;
26588;SDS011;14235;48.532;8.722;2023-01-08T14:26:02;1.92;;;1.83;;
26588;SDS011;14235;48.532;8.722;2023-01-08T14:28:30;2.67;;;2.47;;
26588;SDS011;14235;48.532;8.722;2023-01-08T14:30:56;2.03;;;1.85;;
26588;SDS011;14235;48.532;8.722;2023-01-08T14:33:23;2.28;;;2.08;;
26588;SDS011;14235;48.532;8.722;2023-01-08T14:36:07;2.20;;;2.00;;
26588;SDS011;14235;48.532;8.722;2023-01-08T14:38:33;2.65;;;2.00;;
26588;SDS011;14235;48.532;8.722;2023-01-08T14:41:02;2.20;;;2.05;;
26588;SDS011;14235;48.532;8.722;2023-01-08T14:43:32;2.15;;;2.05;;
26588;SDS011;14235;48.532;8.722;2023-01-08T14:46:02;2.75;;;2.55;;
26588;SDS011;14235;48.532;8.722;2023-01-08T14:48:38;2.60;;;2.40;;
26588;SDS011;14235;48.532;8.722;2023-01-08T14:51:09;2.40;;;2.20;;
26588;SDS011;14235;48.532;8.722;2023-01-08T14:53:44;2.28;;;2.17;;
26588;SDS011;14235;48.532;8.722;2023-01-08T14:56:13;2.60;;;2.40;;
26588;SDS011;14235;48.532;8.722;2023-01-08T14:58:42;2.08;;;1.98;;
26588;SDS011;14235;48.532;8.722;2023-01-08T15:01:13;2.00;;;1.90;;
26588;SDS011;14235;48.532;8.722;2023-01-08T15:03:42;2.22;;;1.98;;
26588;SDS011;14235;48.532;8.722;2023-01-08T15:06:09;2.45;;;2.25;;
26588;SDS011;14235;48.532;8.722;2023-01-08T15:08:42;3.10;;;2.80;;
26588;SDS011;14235;48.532;8.722;2023-01-08T15:13:43;4.00;;;3.70;;
26588;SDS011;14235;48.532;8.722;2023-01-08T15:16:25;4.85;;;4.07;;
26588;SDS011;14235;48.532;8.722;2023-01-08T15:19:14;2.67;;;2.55;;
26588;SDS011;14235;48.532;8.722;2023-01-08T15:21:49;3.20;;;1.85;;
26588;SDS011;14235;48.532;8.722;2023-01-08T15:27:19;4.03;;;3.72;;
26588;SDS011;14235;48.532;8.722;2023-01-08T15:29:48;2.30;;;2.20;;
26588;SDS011;14235;48.532;8.722;2023-01-08T15:34:42;1.73;;;1.63;;
26588;SDS011;14235;48.532;8.722;2023-01-08T15:37:08;2.08;;;1.98;;
26588;SDS011;14235;48.532;8.722;2023-01-08T15:39:34;2.03;;;1.92;;
26588;SDS011;14235;48.532;8.722;2023-01-08T15:42:00;2.20;;;1.75;;
26588;SDS011;14235;48.532;8.722;2023-01-08T15:44:58;3.10;;;2.42;;
26588;SDS011;14235;48.532;8.722;2023-01-08T15:47:23;3.55;;;3.25;;
26588;SDS011;14235;48.532;8.722;2023-01-08T15:49:49;7.95;;;6.60;;
26588;SDS011;14235;48.532;8.722;2023-01-08T15:52:15;6.03;;;5.20;;
26588;SDS011;14235;48.532;8.722;2023-01-08T15:54:47;3.33;;;3.13;;
26588;SDS011;14235;48.532;8.722;2023-01-08T15:57:13;6.55;;;5.90;;
26588;SDS011;14235;48.532;8.722;2023-01-08T15:59:38;3.72;;;3.42;;
26588;SDS011;14235;48.532;8.722;2023-01-08T16:02:04;5.03;;;4.63;;
26588;SDS011;14235;48.532;8.722;2023-01-08T16:04:29;5.40;;;5.00;;
26588;SDS011;14235;48.532;8.722;2023-01-08T16:06:55;7.63;;;6.88;;
26588;SDS011;14235;48.532;8.722;2023-01-08T16:09:20;7.18;;;6.03;;
26588;SDS011;14235;48.532;8.722;2023-01-08T16:11:46;5.65;;;5.15;;
26588;SDS011;14235;48.532;8.722;2023-01-08T16:14:11;6.40;;;5.00;;
26588;SDS011;14235;48.532;8.722;2023-01-08T16:16:37;5.30;;;4.85;;
26588;SDS011;14235;48.532;8.722;2023-01-08T16:19:03;5.82;;;5.28;;
26588;SDS011;14235;48.532;8.722;2023-01-08T16:21:28;7.82;;;6.95;;
26588;SDS011;14235;48.532;8.722;2023-01-08T16:23:54;10.57;;;9.57;;